Time;durP1;ratioP1;P1;durP2;ratioP2;P2;SDS_P1;SDS_P2;PMS_P1;PMS_P2;Temp;Humidity;BMP_temperature;BMP_pressure;BME280_temperature;BME280_humidity;BME280_pressure;Samples;Min_cycle;Max_cycle;Signal;HPM_P1;HPM_P2
2022/06/16 00:02:21;;;;;;;6.43;3.10;;;16.20;99.90;;;;;;5055658;28;20207;-92
2022/06/16 00:04:47;;;;;;;2.77;1.80;;;16.20;99.90;;;;;;5054237;28;20197;-90
2022/06/16 00:07:15;;;;;;;5.40;3.43;;;16.20;99.90;;;;;;5055929;28;20220;-91
2022/06/16 00:09:40;;;;;;;4.80;2.70;;;16.10;99.90;;;;;;5055170;28;20213;-88
2022/06/16 00:12:06;;;;;;;5.60;2.03;;;16.10;99.90;;;;;;5055844;28;20498;-91
2022/06/16 00:14:32;;;;;;;2.60;1.97;;;16.10;99.90;;;;;;5055995;28;20253;-90
2022/06/16 00:16:58;;;;;;;5.83;2.10;;;16.00;99.90;;;;;;5054113;28;20462;-92
2022/06/16 00:19:24;;;;;;;4.80;2.50;;;16.00;99.90;;;;;;5054993;28;20182;-92
2022/06/16 00:21:49;;;;;;;2.67;1.60;;;15.90;99.90;;;;;;5055891;28;20417;-90
2022/06/16 00:24:15;;;;;;;4.67;1.80;;;15.90;99.90;;;;;;5055371;28;20491;-88
2022/06/16 00:26:43;;;;;;;4.63;1.60;;;15.90;99.90;;;;;;5054115;28;20508;-87
2022/06/16 00:29:09;;;;;;;3.10;2.00;;;15.90;99.90;;;;;;5054103;28;20217;-95
2022/06/16 00:31:35;;;;;;;4.33;1.47;;;15.90;99.90;;;;;;5054282;28;20841;-89
2022/06/16 00:34:01;;;;;;;3.50;1.83;;;15.80;99.90;;;;;;5054293;28;20638;-88
2022/06/16 00:36:26;;;;;;;3.10;2.50;;;15.80;99.90;;;;;;5054805;28;20438;-88
2022/06/16 00:38:52;;;;;;;3.90;1.53;;;15.70;99.90;;;;;;5055161;28;20191;-88
2022/06/16 00:41:18;;;;;;;5.37;2.97;;;15.70;99.90;;;;;;5054797;28;20182;-87
2022/06/16 00:43:43;;;;;;;3.70;1.33;;;15.70;99.90;;;;;;5053845;28;20673;-94
2022/06/16 00:46:15;;;;;;;4.27;1.93;;;15.60;99.90;;;;;;5053909;28;20179;-88
2022/06/16 00:48:42;;;;;;;3.07;1.30;;;15.60;99.90;;;;;;5055151;28;20251;-89
2022/06/16 00:51:34;;;;;;;3.40;2.00;;;15.50;99.90;;;;;;5070224;28;20575;-94
2022/06/16 00:54:15;;;;;;;3.97;1.53;;;15.50;99.90;;;;;;5053717;28;20467;-93
2022/06/16 00:56:41;;;;;;;2.93;1.70;;;15.50;99.90;;;;;;5054047;28;20421;-91
2022/06/16 00:59:07;;;;;;;3.93;0.90;;;15.50;99.90;;;;;;5070515;28;20456;-90
2022/06/16 01:01:35;;;;;;;3.00;1.30;;;15.50;99.90;;;;;;5054033;28;20435;-93
2022/06/16 01:06:46;;;;;;;1.57;1.13;;;15.50;99.90;;;;;;5055523;28;20482;-90
2022/06/16 01:09:16;;;;;;;2.37;1.03;;;15.50;99.90;;;;;;5054330;28;20453;-92
2022/06/16 01:15:00;;;;;;;2.80;1.13;;;15.50;99.90;;;;;;5054417;28;20408;-90
2022/06/16 01:17:40;;;;;;;2.27;1.10;;;15.40;99.90;;;;;;5053920;28;20465;-87
2022/06/16 01:20:27;;;;;;;3.27;1.67;;;15.40;99.90;;;;;;5068731;28;20413;-86
2022/06/16 01:23:38;;;;;;;2.93;1.20;;;15.40;99.90;;;;;;5069500;28;20431;-91
2022/06/16 01:26:36;;;;;;;2.93;1.30;;;15.30;99.90;;;;;;5053258;28;20478;-93
2022/06/16 01:29:30;;;;;;;3.17;1.40;;;15.20;99.90;;;;;;5052996;28;20413;-88
2022/06/16 01:32:23;;;;;;;1.30;0.80;;;15.20;99.90;;;;;;5052933;28;20874;-87
2022/06/16 01:35:05;;;;;;;1.67;1.07;;;15.10;99.90;;;;;;5053007;28;20414;-89
2022/06/16 01:37:55;;;;;;;1.50;0.70;;;15.10;99.90;;;;;;5052848;28;20942;-87
2022/06/16 01:40:31;;;;;;;3.10;0.70;;;15.10;99.90;;;;;;5052424;28;20421;-87
2022/06/16 01:43:10;;;;;;;3.00;1.63;;;15.10;99.90;;;;;;5053346;28;20407;-88
2022/06/16 01:45:48;;;;;;;2.80;0.97;;;15.10;99.90;;;;;;5053893;28;20477;-90
2022/06/16 01:48:15;;;;;;;2.60;1.03;;;15.10;99.90;;;;;;5053070;28;20495;-89
2022/06/16 01:50:52;;;;;;;3.47;1.13;;;15.10;99.90;;;;;;5052445;28;20463;-89
2022/06/16 01:53:26;;;;;;;1.43;0.50;;;15.10;99.90;;;;;;5052666;28;20404;-88
2022/06/16 01:56:07;;;;;;;2.20;0.43;;;15.10;99.90;;;;;;5068736;28;20423;-87
2022/06/16 01:58:36;;;;;;;2.33;1.60;;;15.10;99.90;;;;;;5052137;28;20475;-88
2022/06/16 02:01:07;;;;;;;5.00;1.53;;;15.10;99.90;;;;;;5052002;28;20428;-89
2022/06/16 02:03:44;;;;;;;1.87;0.70;;;15.00;99.90;;;;;;5052192;28;20413;-91
2022/06/16 02:06:20;;;;;;;1.50;0.60;;;15.00;99.90;;;;;;5051825;28;20486;-88
2022/06/16 02:08:50;;;;;;;3.83;0.80;;;15.00;99.90;;;;;;5052333;28;20417;-92
2022/06/16 02:11:22;;;;;;;2.80;1.03;;;15.00;99.90;;;;;;5052067;28;20508;-88
2022/06/16 02:14:00;;;;;;;4.30;1.10;;;14.90;99.90;;;;;;5052293;28;20783;-90
2022/06/16 02:16:34;;;;;;;3.00;0.83;;;14.90;99.90;;;;;;5052220;28;20424;-91
2022/06/16 02:19:02;;;;;;;4.50;0.90;;;14.90;99.90;;;;;;5051522;28;20955;-87
2022/06/16 02:21:35;;;;;;;2.57;1.10;;;14.90;99.90;;;;;;5052807;28;20780;-88
2022/06/16 02:24:06;;;;;;;4.37;1.60;;;14.90;99.90;;;;;;5053132;28;20450;-88
2022/06/16 02:26:32;;;;;;;3.43;1.20;;;14.90;99.90;;;;;;5053166;28;20412;-88
2022/06/16 02:29:00;;;;;;;2.00;1.00;;;14.90;99.90;;;;;;5052030;28;20917;-87
2022/06/16 02:31:41;;;;;;;2.77;0.87;;;14.90;99.90;;;;;;5052792;28;20492;-88
2022/06/16 02:34:39;;;;;;;3.07;1.43;;;14.90;99.90;;;;;;5052663;28;20416;-89
2022/06/16 02:37:45;;;;;;;2.77;1.37;;;14.90;99.90;;;;;;5068898;28;20466;-90
2022/06/16 02:40:23;;;;;;;2.13;1.23;;;14.80;99.90;;;;;;5070190;28;20953;-92
2022/06/16 02:43:25;;;;;;;1.23;0.67;;;14.80;99.90;;;;;;5073235;28;20416;-90
2022/06/16 02:46:09;;;;;;;3.60;1.70;;;14.80;99.90;;;;;;5073408;28;20446;-91
2022/06/16 02:48:52;;;;;;;2.23;0.73;;;14.80;99.90;;;;;;5073156;28;20420;-89
2022/06/16 02:51:43;;;;;;;4.13;1.13;;;14.80;99.90;;;;;;5072270;28;20478;-89
2022/06/16 02:54:20;;;;;;;7.10;1.47;;;14.70;99.90;;;;;;5072545;28;20427;-90
2022/06/16 02:57:22;;;;;;;6.67;1.10;;;14.70;99.90;;;;;;5072894;28;20485;-91
2022/06/16 02:59:55;;;;;;;5.23;0.97;;;14.70;99.90;;;;;;5035695;28;20432;-88
2022/06/16 03:02:23;;;;;;;3.80;1.27;;;14.60;99.90;;;;;;5056047;28;20503;-89
2022/06/16 03:04:51;;;;;;;3.77;1.20;;;14.60;99.90;;;;;;5072076;28;20416;-87
2022/06/16 03:07:17;;;;;;;5.90;1.30;;;14.50;99.90;;;;;;5072371;28;20416;-87
2022/06/16 03:09:43;;;;;;;4.63;0.80;;;14.50;99.90;;;;;;5071495;28;20542;-89
2022/06/16 03:12:11;;;;;;;2.90;1.10;;;14.40;99.90;;;;;;5071736;28;20475;-94
2022/06/16 03:14:36;;;;;;;4.93;0.80;;;14.40;99.90;;;;;;5054652;28;20418;-87
2022/06/16 03:17:03;;;;;;;2.40;0.63;;;14.30;99.90;;;;;;5054423;28;20507;-87
2022/06/16 03:19:32;;;;;;;2.60;1.50;;;14.20;99.90;;;;;;5054205;28;20272;-86
2022/06/16 03:21:57;;;;;;;3.47;1.50;;;14.10;99.90;;;;;;5055273;28;20428;-87
2022/06/16 03:24:23;;;;;;;4.07;1.30;;;14.10;99.90;;;;;;5055991;28;21005;-88
2022/06/16 03:26:49;;;;;;;5.20;1.37;;;14.10;99.90;;;;;;5055707;28;20208;-88
2022/06/16 03:29:15;;;;;;;3.30;1.40;;;14.10;99.90;;;;;;5055724;28;20408;-88
2022/06/16 03:31:41;;;;;;;2.47;0.87;;;14.10;99.90;;;;;;5056754;28;20293;-90
2022/06/16 03:34:06;;;;;;;3.30;1.23;;;14.10;99.90;;;;;;5056817;28;20446;-91
2022/06/16 03:36:32;;;;;;;4.30;1.40;;;14.10;99.90;;;;;;5056562;28;20167;-87
2022/06/16 03:38:58;;;;;;;4.30;1.80;;;14.10;99.90;;;;;;5054949;28;20537;-88
2022/06/16 03:41:23;;;;;;;2.50;1.73;;;14.10;99.90;;;;;;5056231;28;20411;-87
2022/06/16 03:43:49;;;;;;;2.97;1.20;;;14.10;99.90;;;;;;5056201;28;20168;-86
2022/06/16 03:46:16;;;;;;;3.33;1.50;;;14.10;99.90;;;;;;5054886;28;20188;-88
2022/06/16 03:48:42;;;;;;;3.53;1.70;;;14.20;99.90;;;;;;5056142;28;20524;-88
2022/06/16 03:51:09;;;;;;;2.20;1.30;;;14.20;99.90;;;;;;5054378;28;20474;-88
2022/06/16 03:53:35;;;;;;;3.10;1.83;;;14.20;99.90;;;;;;5071687;28;20419;-86
2022/06/16 03:56:01;;;;;;;3.03;1.70;;;14.20;99.90;;;;;;5056184;28;20856;-88
2022/06/16 03:58:27;;;;;;;4.40;1.77;;;14.20;99.90;;;;;;5055440;28;20490;-90
2022/06/16 04:00:55;;;;;;;3.57;1.40;;;14.20;99.90;;;;;;5055573;28;20427;-92
2022/06/16 04:06:06;;;;;;;4.63;1.03;;;14.30;99.90;;;;;;5056426;28;20410;-87
2022/06/16 04:08:31;;;;;;;3.33;1.83;;;14.40;99.90;;;;;;5054964;28;20419;-87
2022/06/16 04:11:26;;;;;;;5.50;2.93;;;14.50;99.90;;;;;;5056076;28;20209;-90
2022/06/16 04:13:45;;;;;;;3.60;1.37;;;14.50;99.90;;;;;;5055840;28;20176;-89
2022/06/16 04:16:10;;;;;;;3.33;1.13;;;14.60;99.90;;;;;;5054926;28;20428;-90
2022/06/16 04:18:41;;;;;;;3.20;1.50;;;14.60;99.90;;;;;;5056326;28;20268;-88
2022/06/16 04:21:08;;;;;;;5.13;2.40;;;14.70;99.90;;;;;;5057361;28;20626;-88
2022/06/16 04:23:34;;;;;;;3.87;1.30;;;14.70;99.90;;;;;;5060434;28;20476;-88
2022/06/16 04:26:00;;;;;;;4.40;1.50;;;14.70;99.90;;;;;;5059171;28;20810;-93
2022/06/16 04:28:32;;;;;;;3.30;1.10;;;14.70;99.90;;;;;;5057462;28;20537;-88
2022/06/16 04:30:58;;;;;;;5.13;2.20;;;14.80;99.90;;;;;;5056468;28;20569;-88
2022/06/16 04:33:26;;;;;;;1.90;0.90;;;14.90;99.90;;;;;;5056641;28;20419;-88
2022/06/16 04:35:52;;;;;;;2.10;1.37;;;14.90;99.90;;;;;;5054474;28;20428;-93
2022/06/16 04:38:18;;;;;;;7.43;1.20;;;15.00;99.90;;;;;;5054934;28;20425;-89
2022/06/16 04:40:44;;;;;;;7.13;1.40;;;15.00;99.90;;;;;;5054938;28;20420;-91
2022/06/16 04:43:10;;;;;;;5.10;2.17;;;15.00;99.90;;;;;;5054613;28;20416;-92
2022/06/16 04:45:37;;;;;;;3.93;1.33;;;15.00;99.90;;;;;;5054704;28;20173;-92
2022/06/16 04:48:03;;;;;;;3.90;1.23;;;15.10;99.90;;;;;;5054854;28;20416;-92
2022/06/16 04:50:28;;;;;;;5.97;1.43;;;15.20;99.90;;;;;;5054572;28;20454;-91
2022/06/16 04:52:57;;;;;;;2.00;0.70;;;15.30;91.90;;;;;;5054676;28;20224;-90
2022/06/16 04:55:22;;;;;;;3.93;1.27;;;15.30;84.10;;;;;;5054499;28;20232;-88
2022/06/16 04:57:48;;;;;;;1.60;1.07;;;15.40;68.70;;;;;;5054364;28;20814;-88
2022/06/16 05:00:16;;;;;;;2.80;1.33;;;15.40;58.20;;;;;;5054578;28;20177;-88
2022/06/16 05:02:41;;;;;;;3.20;0.97;;;15.40;76.10;;;;;;5053916;28;20250;-93
2022/06/16 05:05:07;;;;;;;3.47;0.70;;;15.50;79.40;;;;;;5057205;28;20499;-94
2022/06/16 05:07:33;;;;;;;2.40;1.03;;;15.50;78.10;;;;;;5055451;28;20178;-93
2022/06/16 05:09:59;;;;;;;1.30;0.63;;;15.60;59.60;;;;;;5055222;28;20265;-88
2022/06/16 05:12:24;;;;;;;3.30;1.73;;;15.70;55.60;;;;;;5054824;28;20898;-92
2022/06/16 05:14:50;;;;;;;3.57;1.03;;;15.70;50.60;;;;;;5054746;28;20264;-93
2022/06/16 05:17:16;;;;;;;3.00;0.77;;;15.80;42.80;;;;;;5054535;28;20174;-88
2022/06/16 05:19:42;;;;;;;3.73;1.67;;;15.90;31.10;;;;;;5053951;28;20174;-91
2022/06/16 05:22:07;;;;;;;4.87;1.47;;;16.00;29.70;;;;;;5054171;28;20179;-91
2022/06/16 05:24:36;;;;;;;3.30;1.20;;;16.10;15.50;;;;;;5054160;28;20273;-92
2022/06/16 05:27:03;;;;;;;3.67;1.47;;;16.20;1.00;;;;;;5054731;28;20228;-88
2022/06/16 05:29:29;;;;;;;5.13;1.37;;;16.30;1.00;;;;;;5054964;28;20514;-92
2022/06/16 05:31:55;;;;;;;4.00;1.23;;;16.30;1.00;;;;;;5056324;28;20987;-88
2022/06/16 05:34:21;;;;;;;4.27;1.67;;;16.40;1.00;;;;;;5055460;28;20427;-88
2022/06/16 05:36:47;;;;;;;3.30;1.40;;;16.50;1.00;;;;;;5053369;28;20179;-88
2022/06/16 05:39:13;;;;;;;2.37;0.77;;;16.50;1.00;;;;;;5053365;28;20532;-90
2022/06/16 05:41:39;;;;;;;2.40;1.67;;;16.60;1.00;;;;;;5053349;28;20418;-89
2022/06/16 05:44:05;;;;;;;4.50;1.73;;;16.70;1.00;;;;;;5053367;28;20174;-89
2022/06/16 05:46:31;;;;;;;2.37;1.40;;;16.70;1.00;;;;;;5053151;28;20763;-90
2022/06/16 05:48:56;;;;;;;5.53;1.50;;;16.90;1.00;;;;;;5052975;28;20433;-89
2022/06/16 05:51:23;;;;;;;4.97;2.00;;;17.00;1.00;;;;;;5053073;28;20238;-88
2022/06/16 05:53:49;;;;;;;4.57;2.30;;;17.10;1.00;;;;;;5052898;28;20709;-88
2022/06/16 05:56:15;;;;;;;2.90;1.23;;;17.20;1.00;;;;;;5053111;28;20421;-90
2022/06/16 05:58:41;;;;;;;3.93;1.23;;;17.20;1.00;;;;;;5054325;28;20457;-89
2022/06/16 06:01:10;;;;;;;5.37;1.30;;;17.20;1.00;;;;;;5053028;28;20584;-88
2022/06/16 06:03:41;;;;;;;2.17;0.70;;;17.30;1.00;;;;;;5053108;28;20417;-89
2022/06/16 06:06:07;;;;;;;4.10;1.23;;;17.40;1.00;;;;;;5053729;28;20929;-91
2022/06/16 06:17:08;;;;;;;3.37;0.90;;;18.40;99.90;;;;;;5064932;28;20422;-89
2022/06/16 06:19:34;;;;;;;3.03;1.00;;;18.90;1.00;;;;;;5059183;28;20476;-89
2022/06/16 06:22:06;;;;;;;3.53;1.37;;;19.30;1.00;;;;;;5052806;28;20901;-90
2022/06/16 06:24:39;;;;;;;1.80;0.70;;;19.70;1.00;;;;;;5053845;28;20754;-91
2022/06/16 06:27:16;;;;;;;3.27;0.57;;;20.00;1.00;;;;;;5053699;28;20422;-91
2022/06/16 06:29:43;;;;;;;3.63;1.17;;;20.30;1.00;;;;;;5069736;28;20423;-91
2022/06/16 06:32:10;;;;;;;2.37;0.63;;;20.50;99.90;;;;;;5052761;28;20466;-89
2022/06/16 06:34:36;;;;;;;2.60;0.53;;;20.40;48.90;;;;;;5052751;28;20552;-91
2022/06/16 06:37:01;;;;;;;3.27;1.00;;;20.60;99.90;;;;;;5052861;28;20473;-93
2022/06/16 06:39:27;;;;;;;4.33;1.37;;;20.90;1.00;;;;;;5053127;28;20528;-93
2022/06/16 06:41:56;;;;;;;5.67;1.50;;;21.20;1.00;;;;;;5053827;28;20664;-93
2022/06/16 06:44:21;;;;;;;3.83;1.57;;;21.70;1.00;;;;;;5052658;28;20176;-93
2022/06/16 06:46:47;;;;;;;5.80;0.80;;;21.70;99.90;;;;;;5052730;28;20411;-88
2022/06/16 06:49:15;;;;;;;6.00;1.17;;;21.50;99.90;;;;;;5052351;28;20174;-91
2022/06/16 06:51:41;;;;;;;2.00;1.20;;;21.50;99.90;;;;;;5052827;28;20204;-89
2022/06/16 06:54:07;;;;;;;4.90;0.97;;;21.50;99.90;;;;;;5052238;28;20411;-88
2022/06/16 06:56:33;;;;;;;3.00;0.87;;;21.70;99.90;;;;;;5052533;28;20442;-92
2022/06/16 06:59:01;;;;;;;2.83;0.83;;;22.10;99.90;;;;;;5052293;28;20222;-93
2022/06/16 07:01:27;;;;;;;3.57;1.03;;;22.50;99.90;;;;;;5052965;28;20421;-91
2022/06/16 07:03:53;;;;;;;1.77;1.57;;;22.80;99.90;;;;;;5053017;28;20416;-91
2022/06/16 07:06:21;;;;;;;3.77;1.27;;;23.30;99.90;;;;;;5052449;28;20669;-90
2022/06/16 07:08:47;;;;;;;3.23;1.00;;;24.20;99.90;;;;;;5053262;28;20176;-93
2022/06/16 07:11:13;;;;;;;3.63;0.83;;;25.10;99.90;;;;;;5052140;28;20999;-89
2022/06/16 07:13:38;;;;;;;4.33;1.00;;;25.70;99.90;;;;;;5052720;28;20225;-86
2022/06/16 07:16:05;;;;;;;1.23;0.80;;;26.10;82.50;;;;;;5052606;28;20172;-87
2022/06/16 07:18:31;;;;;;;2.70;0.93;;;26.80;54.60;;;;;;5052421;28;20169;-87
2022/06/16 07:20:56;;;;;;;2.97;0.73;;;27.00;39.10;;;;;;5051907;28;20503;-85
2022/06/16 07:23:22;;;;;;;2.20;0.67;;;27.60;27.40;;;;;;5052207;28;20193;-85
2022/06/16 07:25:49;;;;;;;3.20;0.70;;;28.60;21.30;;;;;;5052906;28;20655;-85
2022/06/16 07:28:15;;;;;;;3.23;0.87;;;28.60;10.20;;;;;;5056308;28;20176;-86
2022/06/16 07:30:42;;;;;;;2.80;0.60;;;29.40;7.40;;;;;;5056096;28;20451;-83
2022/06/16 07:33:07;;;;;;;5.10;1.23;;;29.50;1.20;;;;;;5056075;28;20422;-84
2022/06/16 07:35:34;;;;;;;1.53;0.67;;;30.00;1.00;;;;;;5055733;28;20972;-84
2022/06/16 07:37:59;;;;;;;4.20;0.60;;;30.70;1.00;;;;;;5056009;28;20170;-82
2022/06/16 07:40:25;;;;;;;3.80;0.70;;;31.60;1.00;;;;;;5055958;28;20923;-84
2022/06/16 07:42:56;;;;;;;4.27;0.80;;;31.80;1.00;;;;;;5055960;28;20174;-85
2022/06/16 07:45:25;;;;;;;2.70;0.43;;;31.60;1.00;;;;;;5054693;28;20515;-86
2022/06/16 07:47:52;;;;;;;1.30;0.50;;;31.30;1.00;;;;;;5054602;28;20432;-84
2022/06/16 07:50:17;;;;;;;1.80;0.30;;;30.20;1.00;;;;;;5055424;28;20427;-84
2022/06/16 07:52:43;;;;;;;2.20;0.83;;;29.30;1.00;;;;;;5055766;28;20435;-83
2022/06/16 07:55:10;;;;;;;0.90;0.20;;;29.60;1.00;;;;;;5055617;28;20646;-84
2022/06/16 07:57:42;;;;;;;1.90;0.50;;;30.10;1.00;;;;;;5055414;28;20444;-85
2022/06/16 08:00:08;;;;;;;1.63;0.50;;;30.50;1.00;;;;;;5055559;28;20416;-84
2022/06/16 08:02:34;;;;;;;2.67;0.60;;;29.80;1.00;;;;;;5055630;28;20826;-84
2022/06/16 08:05:02;;;;;;;4.33;0.50;;;28.30;1.00;;;;;;5054969;28;20502;-87
2022/06/16 08:07:28;;;;;;;2.17;0.70;;;26.60;1.00;;;;;;5055074;28;20187;-87
2022/06/16 08:09:53;;;;;;;1.03;0.30;;;26.60;1.00;;;;;;5054482;28;20752;-87
2022/06/16 08:12:20;;;;;;;3.30;0.40;;;25.80;1.00;;;;;;5055312;28;20267;-84
2022/06/16 08:14:47;;;;;;;1.73;0.63;;;26.30;1.00;;;;;;5069764;28;20165;-84
2022/06/16 08:17:17;;;;;;;1.30;0.63;;;27.20;1.00;;;;;;5070721;28;20516;-85
2022/06/16 08:19:43;;;;;;;1.50;0.40;;;28.40;1.00;;;;;;5052561;28;20430;-86
2022/06/16 08:22:09;;;;;;;3.63;0.60;;;29.10;1.00;;;;;;5070434;28;20511;-86
2022/06/16 08:24:34;;;;;;;2.70;0.60;;;28.70;1.00;;;;;;5053442;28;20203;-87
2022/06/16 08:27:01;;;;;;;1.93;0.70;;;30.90;1.00;;;;;;5054661;28;20181;-85
2022/06/16 08:29:27;;;;;;;0.90;0.47;;;32.90;1.00;;;;;;5052354;28;20174;-84
2022/06/16 08:31:52;;;;;;;1.33;0.37;;;32.40;1.00;;;;;;5070687;28;20498;-84
2022/06/16 08:34:21;;;;;;;2.50;0.83;;;33.50;1.00;;;;;;5054909;28;20571;-91
2022/06/16 08:36:46;;;;;;;2.37;0.40;;;35.00;1.00;;;;;;5053545;28;20192;-86
2022/06/16 08:39:12;;;;;;;2.73;0.50;;;35.90;1.00;;;;;;5051024;28;20420;-85
2022/06/16 08:41:48;;;;;;;2.00;0.50;;;36.80;1.00;;;;;;5051334;28;20180;-85
2022/06/16 08:44:32;;;;;;;1.90;0.60;;;37.50;1.00;;;;;;5035902;28;20213;-85
2022/06/16 08:47:21;;;;;;;3.53;0.60;;;35.10;1.00;;;;;;5049799;28;20840;-85
2022/06/16 08:50:08;;;;;;;2.30;0.60;;;35.30;1.00;;;;;;5043594;28;20433;-83
2022/06/16 08:52:49;;;;;;;2.83;0.37;;;37.10;1.00;;;;;;5044765;28;20443;-85
2022/06/16 08:55:45;;;;;;;1.70;0.60;;;37.80;1.00;;;;;;5054950;28;20476;-89
2022/06/16 08:58:15;;;;;;;1.70;0.40;;;39.30;1.00;;;;;;5086641;28;20467;-88
2022/06/16 09:00:48;;;;;;;2.20;0.50;;;39.50;1.00;;;;;;5086872;28;20424;-89
2022/06/16 09:03:38;;;;;;;1.97;0.73;;;39.60;1.00;;;;;;5054364;28;20936;-88
2022/06/16 09:06:16;;;;;;;3.27;0.50;;;36.30;1.00;;;;;;5054767;28;20550;-88
2022/06/16 09:09:13;;;;;;;2.57;0.40;;;32.70;1.00;;;;;;5060626;28;21008;-86
2022/06/16 09:11:51;;;;;;;1.63;0.67;;;31.40;1.00;;;;;;5054374;28;20474;-85
2022/06/16 09:18:08;;;;;;;1.53;0.40;;;31.30;1.00;;;;;;5020102;28;20408;-89
2022/06/16 09:21:18;;;;;;;0.77;0.30;;;32.70;1.00;;;;;;5035792;28;20424;-90
2022/06/16 09:24:17;;;;;;;1.47;0.60;;;34.00;1.00;;;;;;5053995;28;20888;-86
2022/06/16 09:26:58;;;;;;;0.83;0.20;;;35.90;1.00;;;;;;5053461;28;20417;-87
2022/06/16 09:29:48;;;;;;;2.10;0.43;;;35.10;1.00;;;;;;5053716;28;20412;-85
2022/06/16 09:32:22;;;;;;;2.87;0.40;;;35.80;1.00;;;;;;5053595;28;20479;-92
2022/06/16 09:34:56;;;;;;;0.60;0.20;;;38.00;1.00;;;;;;5069541;28;20920;-86
2022/06/16 09:37:27;;;;;;;2.10;0.47;;;39.70;1.00;;;;;;5052983;28;20416;-85
2022/06/16 09:40:02;;;;;;;1.57;0.20;;;40.20;1.00;;;;;;5050909;28;20774;-86
2022/06/16 09:42:37;;;;;;;1.80;0.20;;;38.60;1.00;;;;;;5067838;28;20416;-86
2022/06/16 09:45:02;;;;;;;1.27;0.33;;;40.10;1.00;;;;;;5052909;28;20438;-85
2022/06/16 09:47:34;;;;;;;2.20;0.20;;;40.40;1.00;;;;;;5052994;28;20420;-86
2022/06/16 09:50:20;;;;;;;1.23;0.20;;;40.00;1.00;;;;;;5052288;28;20484;-87
2022/06/16 09:53:12;;;;;;;0.63;0.20;;;41.40;1.00;;;;;;5052840;28;20582;-86
2022/06/16 09:55:48;;;;;;;0.63;0.20;;;41.40;1.00;;;;;;5068515;28;20428;-86
2022/06/16 09:58:22;;;;;;;1.10;0.20;;;40.60;1.00;;;;;;5052582;28;20452;-86
2022/06/16 10:00:52;;;;;;;1.13;0.20;;;41.20;1.00;;;;;;5052958;28;20420;-86
2022/06/16 10:03:25;;;;;;;1.37;0.20;;;42.20;1.00;;;;;;5052586;28;20400;-86
2022/06/16 10:06:07;;;;;;;0.73;0.30;;;43.40;1.00;;;;;;5052892;28;20428;-87
2022/06/16 10:09:14;;;;;;;1.80;0.37;;;44.40;1.00;;;;;;5052808;28;20412;-86
2022/06/16 10:12:01;;;;;;;1.90;0.30;;;43.80;1.00;;;;;;5052450;28;20550;-86
2022/06/16 10:14:32;;;;;;;2.23;0.20;;;43.70;1.00;;;;;;5052574;28;20410;-85
2022/06/16 10:17:09;;;;;;;2.93;0.40;;;44.20;1.00;;;;;;5052935;28;20958;-86
2022/06/16 10:19:44;;;;;;;0.80;0.30;;;44.00;1.00;;;;;;5051169;28;20451;-85
2022/06/16 10:22:17;;;;;;;3.23;0.57;;;43.70;1.00;;;;;;5052705;28;20423;-85
2022/06/16 10:25:03;;;;;;;3.30;0.20;;;44.20;1.00;;;;;;5051249;28;20417;-86
2022/06/16 10:27:35;;;;;;;1.10;0.30;;;44.90;1.00;;;;;;5052506;28;20412;-86
2022/06/16 10:30:04;;;;;;;1.67;0.20;;;43.80;1.00;;;;;;5052501;28;20443;-86
2022/06/16 10:32:43;;;;;;;0.50;0.20;;;44.20;1.00;;;;;;5068200;28;20472;-84
2022/06/16 10:35:19;;;;;;;1.60;0.30;;;44.60;1.00;;;;;;5051137;28;20516;-86
2022/06/16 10:37:53;;;;;;;1.40;0.20;;;43.90;1.00;;;;;;5051491;28;20419;-85
2022/06/16 10:40:30;;;;;;;1.30;0.30;;;44.40;1.00;;;;;;5051205;28;20932;-85
2022/06/16 10:43:01;;;;;;;1.43;0.40;;;45.30;1.00;;;;;;5052534;28;20427;-84
2022/06/16 10:45:31;;;;;;;1.73;0.30;;;46.00;1.00;;;;;;5052293;28;20982;-84
2022/06/16 10:48:05;;;;;;;1.83;0.67;;;46.00;1.00;;;;;;5052393;28;20416;-85
2022/06/16 10:50:41;;;;;;;0.73;0.30;;;45.20;1.00;;;;;;5051526;28;20466;-85
2022/06/16 10:53:21;;;;;;;0.80;0.20;;;44.30;1.00;;;;;;5052165;28;20427;-85
2022/06/16 10:55:48;;;;;;;2.50;0.40;;;45.40;1.00;;;;;;5052226;28;20412;-85
2022/06/16 10:58:23;;;;;;;3.93;0.40;;;45.70;1.00;;;;;;5051958;28;20491;-85
2022/06/16 11:01:07;;;;;;;0.83;0.33;;;46.00;1.00;;;;;;5052870;28;20420;-86
2022/06/16 11:04:01;;;;;;;1.17;0.50;;;45.90;1.00;;;;;;5056468;28;20410;-87
2022/06/16 11:06:27;;;;;;;1.67;0.50;;;46.90;1.00;;;;;;5054827;28;20435;-85
2022/06/16 11:09:01;;;;;;;2.00;0.50;;;46.30;1.00;;;;;;5056083;28;20510;-88
2022/06/16 11:11:52;;;;;;;1.73;0.50;;;44.50;1.00;;;;;;5054771;28;20217;-85
2022/06/16 11:14:39;;;;;;;0.87;0.33;;;41.30;1.00;;;;;;5056040;28;20452;-85
2022/06/16 11:17:11;;;;;;;1.63;0.50;;;37.90;1.00;;;;;;5055079;28;20511;-85
2022/06/16 11:19:43;;;;;;;1.90;0.37;;;39.50;1.00;;;;;;5055409;28;20404;-84
2022/06/16 11:22:34;;;;;;;1.63;0.30;;;38.90;1.00;;;;;;5055908;28;20498;-86
2022/06/16 11:25:18;;;;;;;1.87;0.40;;;36.90;1.00;;;;;;5044513;28;20416;-85
2022/06/16 11:27:50;;;;;;;1.60;0.30;;;35.70;1.00;;;;;;5071280;28;20459;-85
2022/06/16 11:30:53;;;;;;;1.30;0.40;;;36.70;1.00;;;;;;5071683;28;20989;-84
2022/06/16 11:36:36;;;;;;;1.53;0.40;;;36.90;1.00;;;;;;5055983;28;20462;-85
2022/06/16 11:39:16;;;;;;;1.50;0.20;;;39.20;1.00;;;;;;5056546;28;20419;-85
2022/06/16 11:41:48;;;;;;;1.67;0.30;;;41.10;1.00;;;;;;5071467;28;20424;-92
2022/06/16 11:44:50;;;;;;;1.67;0.30;;;40.60;1.00;;;;;;5055724;28;20414;-85
2022/06/16 11:47:45;;;;;;;0.70;0.30;;;42.60;1.00;;;;;;5051803;28;20514;-87
2022/06/16 11:50:24;;;;;;;3.40;0.50;;;44.20;1.00;;;;;;5054600;28;20931;-84
2022/06/16 11:53:00;;;;;;;2.07;0.63;;;44.60;1.00;;;;;;5055458;28;20424;-85
2022/06/16 11:55:32;;;;;;;1.40;0.50;;;44.50;1.00;;;;;;5070979;28;20513;-84
2022/06/16 11:58:39;;;;;;;2.67;1.77;;;42.50;1.00;;;;;;5055276;28;20556;-85
2022/06/16 12:01:16;;;;;;;4.30;2.50;;;38.80;1.00;;;;;;5055199;28;20418;-84
2022/06/16 12:03:52;;;;;;;3.23;1.00;;;36.30;1.00;;;;;;5070011;28;20424;-87
2022/06/16 12:06:47;;;;;;;1.50;0.50;;;38.80;1.00;;;;;;5070570;28;20747;-86
2022/06/16 12:09:39;;;;;;;1.50;0.30;;;39.40;1.00;;;;;;5055348;28;20415;-85
2022/06/16 12:12:23;;;;;;;1.70;0.20;;;40.90;1.00;;;;;;5055410;28;20876;-86
2022/06/16 12:15:32;;;;;;;0.83;0.33;;;40.20;1.00;;;;;;5070681;28;20770;-86
2022/06/16 12:18:14;;;;;;;3.27;0.37;;;38.80;1.00;;;;;;5054716;28;20481;-87
2022/06/16 12:21:00;;;;;;;3.00;0.70;;;39.50;1.00;;;;;;5055497;28;20881;-86
2022/06/16 12:23:44;;;;;;;1.90;0.40;;;42.10;1.00;;;;;;5055084;28;20396;-87
2022/06/16 12:26:24;;;;;;;1.80;0.70;;;43.30;1.00;;;;;;5055004;28;20916;-85
2022/06/16 12:29:00;;;;;;;0.70;0.30;;;43.40;1.00;;;;;;5055033;28;20450;-86
2022/06/16 12:31:32;;;;;;;1.90;0.50;;;44.30;1.00;;;;;;5054885;28;20470;-86
2022/06/16 12:34:12;;;;;;;1.03;0.20;;;42.80;1.00;;;;;;5054452;28;20412;-86
2022/06/16 12:36:47;;;;;;;1.90;0.67;;;39.50;1.00;;;;;;5070196;28;20499;-86
2022/06/16 12:39:35;;;;;;;1.87;0.20;;;37.60;1.00;;;;;;5054691;28;20415;-85
2022/06/16 12:42:10;;;;;;;2.10;0.30;;;35.90;1.00;;;;;;5070135;28;20428;-85
2022/06/16 12:44:42;;;;;;;2.57;0.40;;;35.20;1.00;;;;;;5054376;28;20898;-84
2022/06/16 12:47:17;;;;;;;1.40;0.50;;;34.20;1.00;;;;;;5054581;28;20443;-89
2022/06/16 12:50:02;;;;;;;2.13;0.40;;;32.50;1.00;;;;;;5054275;28;20407;-85
2022/06/16 12:52:43;;;;;;;1.97;0.37;;;31.60;1.00;;;;;;5054323;28;20478;-85
2022/06/16 12:55:27;;;;;;;1.73;0.47;;;32.70;1.00;;;;;;5054442;28;20408;-88
2022/06/16 12:58:17;;;;;;;0.97;0.37;;;31.80;1.00;;;;;;5054298;28;21013;-85
2022/06/16 13:00:48;;;;;;;2.07;0.33;;;30.30;1.00;;;;;;5054459;28;20487;-87
2022/06/16 13:03:37;;;;;;;2.00;0.50;;;29.40;1.00;;;;;;5053778;28;20412;-85
2022/06/16 13:06:04;;;;;;;1.53;0.40;;;31.30;1.00;;;;;;5054193;28;20408;-85
2022/06/16 13:08:34;;;;;;;2.10;0.63;;;35.00;1.00;;;;;;5053880;28;20404;-85
2022/06/16 13:11:04;;;;;;;2.70;0.43;;;37.00;1.00;;;;;;5053935;28;20984;-86
2022/06/16 13:13:39;;;;;;;1.00;0.20;;;37.50;1.00;;;;;;5053781;28;20901;-85
2022/06/16 13:16:08;;;;;;;1.27;0.30;;;37.80;1.00;;;;;;5053482;28;20428;-87
2022/06/16 13:18:44;;;;;;;3.80;0.60;;;36.90;1.00;;;;;;5053101;28;20774;-88
2022/06/16 13:21:10;;;;;;;1.87;0.60;;;35.00;1.00;;;;;;5053832;28;20420;-86
2022/06/16 13:23:41;;;;;;;0.70;0.30;;;33.20;1.00;;;;;;5054462;28;20409;-84
2022/06/16 13:26:20;;;;;;;2.83;0.40;;;33.90;1.00;;;;;;5053169;28;20404;-85
2022/06/16 13:29:02;;;;;;;2.20;0.77;;;37.10;1.00;;;;;;5065207;28;20501;-86
2022/06/16 13:31:54;;;;;;;1.00;0.30;;;40.10;1.00;;;;;;5062203;28;20591;-86
2022/06/16 13:34:41;;;;;;;2.97;0.50;;;39.20;1.00;;;;;;5041369;28;20764;-86
2022/06/16 13:37:07;;;;;;;0.80;0.30;;;35.90;1.00;;;;;;5053001;28;20412;-85
2022/06/16 13:39:51;;;;;;;1.27;0.50;;;33.40;1.00;;;;;;5053089;28;20412;-87
2022/06/16 13:42:20;;;;;;;1.13;0.33;;;34.80;1.00;;;;;;5053769;28;20557;-86
2022/06/16 13:45:11;;;;;;;3.27;0.50;;;34.50;1.00;;;;;;5053040;28;20468;-84
2022/06/16 13:47:45;;;;;;;1.17;0.57;;;34.10;1.00;;;;;;5052691;28;20477;-85
2022/06/16 13:50:40;;;;;;;4.30;0.77;;;35.40;1.00;;;;;;5053880;28;20410;-90